createdAt,value
2018-02-16T00:00:05.111Z,2.70
2018-02-16T00:02:34.582Z,2.80
2018-02-16T00:05:03.876Z,2.80
2018-02-16T00:07:33.412Z,3.00
2018-02-16T00:10:03.392Z,3.00
2018-02-16T00:12:32.790Z,3.10
2018-02-16T00:15:02.287Z,3.10
2018-02-16T00:17:32.435Z,3.00
2018-02-16T00:20:01.853Z,3.00
2018-02-16T00:22:31.114Z,3.00
2018-02-16T00:25:01.610Z,3.10
2018-02-16T00:27:31.554Z,3.10
2018-02-16T00:30:01.199Z,3.10
2018-02-16T00:32:31.193Z,3.20
2018-02-16T00:35:00.653Z,3.20
2018-02-16T00:37:30.180Z,3.20
2018-02-16T00:40:00.152Z,3.10
2018-02-16T00:42:29.761Z,3.20
2018-02-16T00:44:59.414Z,3.20
2018-02-16T00:47:30.041Z,3.20
2018-02-16T00:49:59.475Z,3.20
2018-02-16T00:52:28.727Z,3.20
2018-02-16T00:54:58.931Z,3.40
2018-02-16T00:57:28.040Z,3.40
2018-02-16T00:59:57.240Z,3.40
2018-02-16T01:02:26.679Z,3.30
2018-02-16T01:04:56.552Z,3.40
2018-02-16T01:07:26.586Z,3.30
2018-02-16T01:09:56.824Z,3.30
2018-02-16T01:12:26.824Z,3.40
2018-02-16T01:14:56.296Z,3.40
2018-02-16T01:17:26.030Z,3.40
2018-02-16T01:19:55.481Z,3.40
2018-02-16T01:22:24.804Z,3.40
2018-02-16T01:24:54.972Z,3.40
2018-02-16T01:27:24.681Z,3.50
2018-02-16T01:29:53.843Z,3.40
2018-02-16T01:32:23.199Z,3.40
2018-02-16T01:34:53.225Z,3.60
2018-02-16T01:37:22.520Z,3.50
2018-02-16T01:39:51.951Z,3.50
2018-02-16T01:42:21.388Z,3.40
2018-02-16T01:44:51.955Z,3.60
2018-02-16T01:47:22.024Z,3.50
2018-02-16T01:49:55.889Z,3.50
2018-02-16T01:52:26.726Z,3.60
2018-02-16T01:54:56.004Z,3.60
2018-02-16T01:57:25.316Z,3.50
2018-02-16T01:59:54.440Z,3.60
2018-02-16T02:02:24.323Z,3.60
2018-02-16T02:04:53.423Z,3.60
2018-02-16T02:07:22.855Z,3.60
2018-02-16T02:09:51.943Z,3.70
2018-02-16T02:12:21.323Z,3.60
2018-02-16T02:14:51.116Z,3.50
2018-02-16T02:17:20.624Z,3.60
2018-02-16T02:19:49.911Z,3.60
2018-02-16T02:22:19.831Z,3.70
2018-02-16T02:24:49.703Z,3.60
2018-02-16T02:27:19.282Z,3.60
2018-02-16T02:29:48.699Z,3.60
2018-02-16T02:32:18.076Z,3.50
2018-02-16T02:34:47.384Z,3.60
2018-02-16T02:37:16.863Z,3.70
2018-02-16T02:39:46.179Z,3.70
2018-02-16T02:42:15.625Z,3.70
2018-02-16T02:44:46.221Z,3.80
2018-02-16T02:47:15.931Z,3.70
2018-02-16T02:49:45.476Z,3.90
2018-02-16T02:52:15.493Z,4.00
2018-02-16T02:54:44.856Z,4.00
2018-02-16T02:57:14.372Z,4.00
2018-02-16T02:59:44.375Z,4.00
2018-02-16T03:02:13.771Z,4.00
2018-02-16T03:04:43.189Z,3.90
2018-02-16T03:07:13.064Z,3.90
2018-02-16T03:09:42.293Z,3.90
2018-02-16T03:12:11.711Z,3.90
2018-02-16T03:14:41.469Z,3.80
2018-02-16T03:17:11.788Z,3.90
2018-02-16T03:19:42.244Z,3.90
2018-02-16T03:22:12.093Z,3.90
2018-02-16T03:24:43.124Z,3.90
2018-02-16T03:27:12.523Z,3.90
2018-02-16T03:29:42.690Z,3.90
2018-02-16T03:32:12.164Z,3.90
2018-02-16T03:34:41.518Z,3.90
2018-02-16T03:37:11.360Z,3.90
2018-02-16T03:39:40.640Z,4.00
2018-02-16T03:42:11.007Z,4.00
2018-02-16T03:44:40.708Z,4.00
2018-02-16T03:47:10.197Z,3.90
2018-02-16T03:49:39.488Z,3.80
2018-02-16T03:52:09.785Z,3.80
2018-02-16T03:54:40.351Z,3.70
2018-02-16T03:57:09.867Z,3.70
2018-02-16T03:59:39.569Z,3.70
2018-02-16T04:02:08.876Z,3.80
2018-02-16T04:04:38.181Z,3.70
2018-02-16T04:07:07.875Z,3.70
2018-02-16T04:09:37.587Z,3.50
2018-02-16T04:12:07.304Z,3.50
2018-02-16T04:14:37.425Z,3.50
2018-02-16T04:17:06.789Z,3.60
2018-02-16T04:19:36.101Z,3.70
2018-02-16T04:22:05.735Z,3.80
2018-02-16T04:24:34.971Z,3.80
2018-02-16T04:27:03.964Z,3.70
2018-02-16T04:29:33.285Z,3.60
2018-02-16T04:32:02.699Z,3.60
2018-02-16T04:34:32.104Z,3.50
2018-02-16T04:37:01.811Z,3.40
2018-02-16T04:39:31.460Z,3.30
2018-02-16T04:42:01.151Z,3.20
2018-02-16T04:44:30.932Z,3.20
2018-02-16T04:47:00.572Z,3.20
2018-02-16T04:49:31.714Z,3.30
2018-02-16T04:52:01.440Z,3.30
2018-02-16T04:54:31.341Z,3.20
2018-02-16T04:57:01.259Z,3.20
2018-02-16T04:59:30.904Z,3.20
2018-02-16T05:02:01.042Z,3.10
2018-02-16T05:04:30.397Z,3.10
2018-02-16T05:06:59.713Z,3.20
2018-02-16T05:09:29.026Z,3.20
2018-02-16T05:11:58.410Z,3.20
2018-02-16T05:14:28.814Z,3.10
2018-02-16T05:16:59.394Z,3.20
2018-02-16T05:19:29.529Z,3.20
2018-02-16T05:21:58.904Z,3.20
2018-02-16T05:24:28.217Z,3.20
2018-02-16T05:26:58.019Z,3.10
2018-02-16T05:29:27.654Z,3.10
2018-02-16T05:31:57.065Z,3.10
2018-02-16T05:34:26.667Z,3.10
2018-02-16T05:36:56.722Z,3.10
2018-02-16T05:39:25.981Z,3.00
2018-02-16T05:41:56.644Z,3.00
2018-02-16T05:44:26.025Z,3.00
2018-02-16T05:46:56.113Z,2.90
2018-02-16T05:49:25.523Z,2.90
2018-02-16T05:51:55.190Z,2.80
2018-02-16T05:54:24.377Z,2.80
2018-02-16T05:56:53.419Z,2.90
2018-02-16T05:59:23.229Z,2.90
2018-02-16T06:01:53.168Z,2.70
2018-02-16T06:04:22.196Z,2.70
2018-02-16T06:06:51.841Z,3.00
2018-02-16T06:09:21.677Z,3.10
2018-02-16T06:11:51.754Z,3.00
2018-02-16T06:14:21.463Z,3.00
2018-02-16T06:16:50.846Z,2.70
2018-02-16T06:19:19.978Z,2.80
2018-02-16T06:21:49.619Z,2.80
2018-02-16T06:24:18.702Z,2.80
2018-02-16T06:26:48.090Z,2.90
2018-02-16T06:29:18.276Z,3.10
2018-02-16T06:31:47.382Z,3.10
2018-02-16T06:34:16.370Z,3.10
2018-02-16T06:36:45.730Z,3.10
2018-02-16T06:39:15.659Z,3.10
2018-02-16T06:41:45.022Z,3.10
2018-02-16T06:44:14.699Z,3.00
2018-02-16T06:46:44.552Z,2.80
2018-02-16T06:49:13.873Z,2.80
2018-02-16T06:51:43.306Z,2.80
2018-02-16T06:54:12.307Z,2.80
2018-02-16T06:56:41.291Z,2.90
2018-02-16T06:59:10.635Z,3.00
2018-02-16T07:01:39.698Z,3.00
2018-02-16T07:04:08.785Z,3.00
2018-02-16T07:06:38.072Z,3.00
2018-02-16T07:09:07.880Z,2.90
2018-02-16T07:11:36.929Z,2.90
2018-02-16T07:14:06.077Z,2.90
2018-02-16T07:16:35.205Z,3.00
2018-02-16T07:19:04.614Z,3.10
2018-02-16T07:21:34.163Z,3.10
2018-02-16T07:24:03.554Z,3.10
2018-02-16T07:26:32.650Z,3.00
2018-02-16T07:29:01.998Z,3.00
2018-02-16T07:31:31.431Z,3.10
2018-02-16T07:34:00.553Z,3.30
2018-02-16T07:36:29.882Z,3.40
2018-02-16T07:38:58.906Z,3.20
2018-02-16T07:41:27.912Z,3.20
2018-02-16T07:43:57.262Z,3.20
2018-02-16T07:46:26.578Z,3.30
2018-02-16T07:48:56.501Z,3.50
2018-02-16T07:51:25.932Z,3.50
2018-02-16T07:53:55.346Z,3.60
2018-02-16T07:56:24.439Z,3.50
2018-02-16T07:58:54.033Z,3.60
2018-02-16T08:01:23.519Z,3.70
2018-02-16T08:03:52.737Z,3.80
2018-02-16T08:06:22.262Z,4.00
2018-02-16T08:08:51.287Z,4.00
2018-02-16T08:11:21.028Z,3.90
2018-02-16T08:13:50.435Z,3.90
2018-02-16T08:16:19.903Z,4.10
2018-02-16T08:18:49.454Z,4.20
2018-02-16T08:21:19.254Z,4.00
2018-02-16T08:23:48.655Z,3.70
2018-02-16T08:26:17.768Z,3.60
2018-02-16T08:28:47.488Z,3.60
2018-02-16T08:31:17.464Z,3.60
2018-02-16T08:33:46.892Z,3.60
2018-02-16T08:36:17.368Z,3.80
2018-02-16T08:38:46.441Z,3.80
2018-02-16T08:41:15.445Z,4.00
2018-02-16T08:43:45.588Z,4.00
2018-02-16T08:46:14.652Z,4.00
2018-02-16T08:48:43.675Z,4.00
2018-02-16T08:51:14.188Z,3.80
2018-02-16T08:53:43.762Z,3.80
2018-02-16T08:56:12.773Z,3.50
2018-02-16T08:58:42.422Z,3.40
2018-02-16T09:01:11.836Z,3.50
2018-02-16T09:03:41.186Z,3.70
2018-02-16T09:06:10.812Z,3.90
2018-02-16T09:08:41.038Z,4.10
2018-02-16T09:11:10.480Z,4.10
2018-02-16T09:13:41.046Z,4.00
2018-02-16T09:16:10.142Z,4.00
2018-02-16T09:18:39.409Z,4.30
2018-02-16T09:21:09.639Z,4.70
2018-02-16T09:23:39.042Z,4.70
2018-02-16T09:26:09.249Z,5.10
2018-02-16T09:28:38.690Z,5.00
2018-02-16T09:31:08.473Z,5.30
2018-02-16T09:33:38.162Z,5.20
2018-02-16T09:36:08.460Z,5.40
2018-02-16T09:38:38.911Z,5.40
2018-02-16T09:41:08.303Z,5.30
2018-02-16T09:43:37.702Z,5.30
2018-02-16T09:46:07.387Z,5.20
2018-02-16T09:48:36.507Z,4.50
2018-02-16T09:51:05.954Z,4.00
2018-02-16T09:53:36.514Z,4.10
2018-02-16T09:56:05.969Z,4.10
2018-02-16T09:58:35.387Z,4.30
2018-02-16T10:01:04.717Z,4.50
2018-02-16T10:03:33.862Z,4.10
2018-02-16T10:06:03.257Z,3.70
2018-02-16T10:08:32.670Z,3.60
2018-02-16T10:11:01.721Z,3.80
2018-02-16T10:13:31.032Z,4.00
2018-02-16T10:16:00.606Z,3.80
2018-02-16T10:18:30.010Z,3.90
2018-02-16T10:20:59.276Z,3.90
2018-02-16T10:23:33.908Z,4.20
2018-02-16T10:26:05.655Z,4.20
2018-02-16T10:28:35.230Z,3.80
2018-02-16T10:31:04.523Z,3.70
2018-02-16T10:33:34.112Z,3.60
2018-02-16T10:36:04.043Z,3.80
2018-02-16T10:38:33.166Z,3.80
2018-02-16T10:41:03.367Z,4.30
2018-02-16T10:43:32.471Z,4.30
2018-02-16T10:46:02.244Z,4.20
2018-02-16T10:48:31.271Z,4.20
2018-02-16T10:51:00.424Z,3.80
2018-02-16T10:53:30.083Z,3.70
2018-02-16T10:55:59.213Z,4.10
2018-02-16T10:58:28.726Z,4.20
2018-02-16T11:01:03.014Z,4.60
2018-02-16T11:03:51.654Z,4.60
2018-02-16T11:06:25.194Z,4.70
2018-02-16T11:08:58.723Z,4.10
2018-02-16T11:11:28.391Z,3.80
2018-02-16T11:13:57.773Z,4.00
2018-02-16T11:16:26.753Z,4.20
2018-02-16T11:18:57.136Z,3.80
2018-02-16T11:21:27.407Z,3.70
2018-02-16T11:23:56.493Z,3.70
2018-02-16T11:26:26.309Z,4.10
2018-02-16T11:28:55.399Z,4.10
2018-02-16T11:31:24.747Z,4.10
2018-02-16T11:33:54.086Z,4.10
2018-02-16T11:36:23.210Z,4.10
2018-02-16T11:38:53.363Z,4.70
2018-02-16T11:41:22.729Z,4.70
2018-02-16T11:43:51.808Z,4.90
2018-02-16T11:46:20.935Z,4.60
2018-02-16T11:48:50.330Z,4.40
2018-02-16T11:51:19.673Z,4.40
2018-02-16T11:53:48.814Z,4.60
2018-02-16T11:56:18.668Z,4.70
2018-02-16T11:58:47.986Z,4.70
2018-02-16T12:01:17.834Z,4.80
2018-02-16T12:03:46.882Z,4.80
2018-02-16T12:06:15.912Z,5.20
2018-02-16T12:08:46.028Z,5.10
2018-02-16T12:11:15.442Z,5.10
2018-02-16T12:13:45.122Z,5.70
2018-02-16T12:16:15.120Z,5.70
2018-02-16T12:18:44.211Z,5.70
2018-02-16T12:21:13.236Z,6.00
2018-02-16T12:23:42.620Z,6.20
2018-02-16T12:26:11.650Z,6.40
2018-02-16T12:28:41.851Z,6.00
2018-02-16T12:31:11.000Z,5.50
2018-02-16T12:33:40.337Z,5.40
2018-02-16T12:36:09.438Z,5.40
2018-02-16T12:38:39.740Z,5.50
2018-02-16T12:41:08.808Z,5.60
2018-02-16T12:43:39.207Z,4.80
2018-02-16T12:46:08.587Z,4.70
2018-02-16T12:48:38.432Z,5.00
2018-02-16T12:51:08.603Z,5.40
2018-02-16T12:53:37.672Z,5.50
2018-02-16T12:56:07.003Z,5.70
2018-02-16T12:58:36.699Z,5.90
2018-02-16T13:01:06.103Z,6.10
2018-02-16T13:03:35.538Z,6.00
2018-02-16T13:06:05.697Z,5.90
2018-02-16T13:08:34.952Z,6.20
2018-02-16T13:11:04.023Z,6.70
2018-02-16T13:13:34.497Z,6.70
2018-02-16T13:16:03.914Z,6.70
2018-02-16T13:18:33.072Z,6.00
2018-02-16T13:21:02.361Z,5.80
2018-02-16T13:23:31.469Z,5.80
2018-02-16T13:26:00.536Z,6.10
2018-02-16T13:28:29.899Z,6.20
2018-02-16T13:31:00.035Z,6.50
2018-02-16T13:33:29.445Z,6.50
2018-02-16T13:35:59.147Z,5.40
2018-02-16T13:38:28.746Z,5.00
2018-02-16T13:40:58.878Z,5.20
2018-02-16T13:43:28.543Z,5.20
2018-02-16T13:45:57.653Z,5.20
2018-02-16T13:48:27.070Z,5.20
2018-02-16T13:50:56.849Z,5.30
2018-02-16T13:53:28.542Z,4.90
2018-02-16T13:55:58.082Z,4.90
2018-02-16T13:58:27.816Z,4.80
2018-02-16T14:00:58.168Z,4.80
2018-02-16T14:03:27.296Z,4.80
2018-02-16T14:05:57.402Z,5.40
2018-02-16T14:08:27.498Z,5.50
2018-02-16T14:10:56.564Z,5.50
2018-02-16T14:13:26.283Z,5.90
2018-02-16T14:15:56.199Z,6.30
2018-02-16T14:18:25.236Z,6.30
2018-02-16T14:20:55.312Z,6.70
2018-02-16T14:23:24.731Z,6.70
2018-02-16T14:25:54.867Z,5.60
2018-02-16T14:28:24.477Z,5.60
2018-02-16T14:30:53.811Z,5.00
2018-02-16T14:33:23.179Z,5.40
2018-02-16T14:35:52.846Z,5.60
2018-02-16T14:38:22.210Z,5.90
2018-02-16T14:40:51.595Z,5.90
2018-02-16T14:43:21.103Z,5.60
2018-02-16T14:45:50.610Z,5.40
2018-02-16T14:48:20.658Z,5.10
2018-02-16T14:50:50.469Z,5.00
2018-02-16T14:53:19.608Z,4.90
2018-02-16T14:56:51.243Z,4.80
2018-02-16T14:59:20.431Z,4.90
2018-02-16T15:01:49.971Z,5.10
2018-02-16T15:04:19.546Z,5.20
2018-02-16T15:06:48.978Z,5.20
2018-02-16T15:09:19.173Z,5.30
2018-02-16T15:11:48.848Z,5.30
2018-02-16T15:14:18.186Z,5.20
2018-02-16T15:16:47.816Z,5.20
2018-02-16T15:19:17.403Z,5.00
2018-02-16T15:21:46.708Z,4.90
2018-02-16T15:24:16.078Z,4.90
2018-02-16T15:26:45.735Z,5.00
2018-02-16T15:29:15.669Z,5.00
2018-02-16T15:31:45.121Z,5.00
2018-02-16T15:34:15.315Z,4.90
2018-02-16T15:36:44.404Z,4.90
2018-02-16T15:39:14.278Z,4.80
2018-02-16T15:41:43.637Z,4.70
2018-02-16T15:44:13.655Z,4.60
2018-02-16T15:46:42.975Z,4.60
2018-02-16T15:49:12.336Z,4.70
2018-02-16T15:51:41.516Z,4.80
2018-02-16T15:54:10.523Z,4.80
2018-02-16T15:56:39.888Z,4.80
2018-02-16T15:59:09.337Z,4.60
2018-02-16T16:01:39.105Z,4.50
2018-02-16T16:04:09.407Z,4.40
2018-02-16T16:06:38.599Z,4.40
2018-02-16T16:09:07.600Z,4.40
2018-02-16T16:11:37.194Z,4.30
2018-02-16T16:14:06.300Z,4.30
2018-02-16T16:16:35.742Z,4.40
2018-02-16T16:19:05.341Z,4.30
2018-02-16T16:21:34.781Z,4.30
2018-02-16T16:24:03.993Z,4.20
2018-02-16T16:26:34.435Z,4.10
2018-02-16T16:29:03.467Z,4.10
2018-02-16T16:31:32.823Z,4.20
2018-02-16T16:34:01.919Z,4.20
2018-02-16T16:36:31.074Z,4.30
2018-02-16T16:39:00.732Z,4.40
2018-02-16T16:41:29.963Z,4.40
2018-02-16T16:43:59.127Z,4.30
2018-02-16T16:46:28.421Z,4.40
2018-02-16T16:48:57.812Z,4.60
2018-02-16T16:51:26.897Z,4.50
2018-02-16T16:53:57.038Z,4.40
2018-02-16T16:56:26.189Z,4.40
2018-02-16T16:58:56.349Z,4.30
2018-02-16T17:01:26.043Z,4.30
2018-02-16T17:03:55.521Z,4.40
2018-02-16T17:06:24.620Z,4.40
2018-02-16T17:08:53.690Z,4.40
2018-02-16T17:11:23.034Z,4.40
2018-02-16T17:13:52.852Z,4.50
2018-02-16T17:16:22.660Z,4.50
2018-02-16T17:18:52.605Z,4.40
2018-02-16T17:21:21.700Z,4.40
2018-02-16T17:23:50.719Z,4.30
2018-02-16T17:26:20.108Z,4.20
2018-02-16T17:28:49.222Z,4.20
2018-02-16T17:31:18.930Z,4.10
2018-02-16T17:33:48.091Z,4.10
2018-02-16T17:36:17.100Z,4.10
2018-02-16T17:38:46.096Z,4.10
2018-02-16T17:41:15.462Z,4.10
2018-02-16T17:43:44.857Z,4.10
2018-02-16T17:46:14.246Z,4.00
2018-02-16T17:48:43.459Z,3.90
2018-02-16T17:51:13.083Z,4.00
2018-02-16T17:53:42.537Z,3.90
2018-02-16T17:56:12.415Z,3.90
2018-02-16T17:58:41.396Z,3.90
2018-02-16T18:01:11.487Z,4.00
2018-02-16T18:03:41.164Z,4.00
2018-02-16T18:06:11.044Z,4.00
2018-02-16T18:08:40.100Z,3.90
2018-02-16T18:11:09.469Z,3.90
2018-02-16T18:13:38.819Z,4.00
2018-02-16T18:16:08.174Z,3.90
2018-02-16T18:18:38.072Z,4.00
2018-02-16T18:21:07.472Z,4.00
2018-02-16T18:23:36.923Z,4.00
2018-02-16T18:26:06.250Z,3.90
2018-02-16T18:28:35.259Z,3.90
2018-02-16T18:31:04.248Z,4.00
2018-02-16T18:33:34.013Z,4.00
2018-02-16T18:36:03.059Z,4.00
2018-02-16T18:38:32.153Z,4.00
2018-02-16T18:41:01.521Z,4.00
2018-02-16T18:43:31.320Z,3.70
2018-02-16T18:46:00.397Z,3.70
2018-02-16T18:48:30.614Z,3.80
2018-02-16T18:50:59.593Z,3.80
2018-02-16T18:53:28.661Z,3.80
2018-02-16T18:55:58.884Z,3.90
2018-02-16T18:58:28.668Z,3.90
2018-02-16T19:00:58.060Z,3.80
2018-02-16T19:03:27.392Z,3.90
2018-02-16T19:05:59.109Z,3.80
2018-02-16T19:08:28.435Z,3.80
2018-02-16T19:10:57.780Z,3.70
2018-02-16T19:13:26.797Z,3.80
2018-02-16T19:15:55.886Z,3.80
2018-02-16T19:18:25.203Z,3.80
2018-02-16T19:20:54.250Z,3.90
2018-02-16T19:23:23.547Z,4.00
2018-02-16T19:25:52.880Z,4.10
2018-02-16T19:28:21.900Z,4.00
2018-02-16T19:30:50.916Z,3.90
2018-02-16T19:33:21.016Z,3.80
2018-02-16T19:35:50.345Z,3.80
2018-02-16T19:38:19.389Z,3.60
2018-02-16T19:40:49.051Z,3.60
2018-02-16T19:43:18.088Z,3.60
2018-02-16T19:45:47.410Z,3.50
2018-02-16T19:48:16.854Z,3.50
2018-02-16T19:50:46.186Z,3.60
2018-02-16T19:53:16.487Z,3.70
2018-02-16T19:55:45.906Z,3.70
2018-02-16T19:58:15.033Z,3.60
2018-02-16T20:00:44.406Z,3.60
2018-02-16T20:03:13.891Z,3.70
2018-02-16T20:05:43.779Z,3.90
2018-02-16T20:08:13.247Z,3.90
2018-02-16T20:10:43.056Z,4.00
2018-02-16T20:13:13.428Z,3.80
2018-02-16T20:15:42.886Z,3.80
2018-02-16T20:18:13.102Z,3.60
2018-02-16T20:20:42.669Z,3.60
2018-02-16T20:23:12.126Z,3.50
2018-02-16T20:25:42.542Z,3.60
2018-02-16T20:28:11.914Z,3.60
2018-02-16T20:30:41.422Z,3.60
2018-02-16T20:33:12.082Z,3.50
2018-02-16T20:35:41.184Z,3.50
2018-02-16T20:38:10.477Z,3.50
2018-02-16T20:40:40.805Z,3.50
2018-02-16T20:43:09.893Z,3.50
2018-02-16T20:45:38.961Z,3.10
2018-02-16T20:48:08.520Z,3.00
2018-02-16T20:50:38.097Z,3.00
2018-02-16T20:53:08.323Z,3.20
2018-02-16T20:55:37.999Z,3.20
2018-02-16T20:58:07.161Z,3.30
2018-02-16T21:00:36.498Z,3.50
2018-02-16T21:03:06.452Z,3.60
2018-02-16T21:05:36.127Z,3.70
2018-02-16T21:08:05.807Z,3.70
2018-02-16T21:10:35.437Z,3.70
2018-02-16T21:13:04.590Z,3.70
2018-02-16T21:15:33.734Z,3.60
2018-02-16T21:18:03.215Z,3.60
2018-02-16T21:20:32.716Z,3.60
2018-02-16T21:23:02.238Z,3.40
2018-02-16T21:25:32.031Z,3.20
2018-02-16T21:28:01.922Z,3.30
2018-02-16T21:30:31.452Z,3.40
2018-02-16T21:33:01.108Z,3.40
2018-02-16T21:35:30.885Z,3.40
2018-02-16T21:38:00.720Z,3.40
2018-02-16T21:40:29.952Z,3.30
2018-02-16T21:43:00.668Z,3.40
2018-02-16T21:45:30.599Z,3.40
2018-02-16T21:48:00.843Z,3.30
2018-02-16T21:50:30.311Z,3.30
2018-02-16T21:52:59.390Z,3.20
2018-02-16T21:55:28.755Z,3.30
2018-02-16T21:57:57.965Z,3.10
2018-02-16T22:00:28.187Z,2.90
2018-02-16T22:02:57.456Z,2.90
2018-02-16T22:05:27.600Z,2.80
2018-02-16T22:07:57.294Z,2.80
2018-02-16T22:10:26.425Z,2.80
2018-02-16T22:12:56.282Z,2.80
2018-02-16T22:15:25.345Z,2.80
2018-02-16T22:17:54.707Z,2.80
2018-02-16T22:20:23.818Z,2.60
2018-02-16T22:22:53.930Z,2.80
2018-02-16T22:25:23.527Z,2.80
2018-02-16T22:27:52.982Z,3.00
2018-02-16T22:30:22.411Z,3.00
2018-02-16T22:32:52.059Z,3.10
2018-02-16T22:35:21.534Z,3.00
2018-02-16T22:37:51.720Z,3.20
2018-02-16T22:40:21.060Z,3.20
2018-02-16T22:42:50.218Z,3.30
2018-02-16T22:45:19.383Z,3.30
2018-02-16T22:47:49.426Z,3.50
2018-02-16T22:50:18.793Z,3.50
2018-02-16T22:52:48.150Z,3.40
2018-02-16T22:55:17.838Z,3.40
2018-02-16T22:57:46.941Z,3.50
2018-02-16T23:00:15.988Z,3.40
2018-02-16T23:02:45.417Z,3.50
2018-02-16T23:05:14.793Z,3.30
2018-02-16T23:07:43.956Z,3.10
2018-02-16T23:10:13.385Z,3.20
2018-02-16T23:12:42.492Z,3.20
2018-02-16T23:15:12.692Z,3.20
2018-02-16T23:17:42.325Z,3.20
2018-02-16T23:20:11.328Z,3.30
2018-02-16T23:22:41.081Z,3.20
2018-02-16T23:25:10.379Z,3.20
2018-02-16T23:27:39.562Z,3.00
2018-02-16T23:30:08.936Z,3.00
2018-02-16T23:32:38.605Z,2.90
2018-02-16T23:35:08.072Z,2.80
2018-02-16T23:37:37.403Z,2.90
2018-02-16T23:40:07.568Z,3.00
2018-02-16T23:42:37.719Z,3.20
2018-02-16T23:45:07.072Z,3.20
2018-02-16T23:47:36.695Z,3.20
2018-02-16T23:50:06.067Z,3.00
2018-02-16T23:52:35.189Z,3.20
2018-02-16T23:55:04.464Z,3.30
2018-02-16T23:57:34.264Z,3.30
